Terminal Aerodrome Forecast
Issued by NWS

Home | Current Version | Previous Version | Text Only | Print | Product List | Glossary On
Versions: 1 2 3 4 5 6 7 8 9 10 11 12
000
FTUS42 TJSJ 022339
TAFISX
TAF
TISX 022339Z 0300/0324 VRB05KT P6SM FEW040
     FM031300 12009KT P6SM FEW030 FEW050
     FM032300 04003KT P6SM FEW025=

USA.gov is the U.S. government's official web portal to all federal, state and local government web resources and services.